sensor_id;sensor_type;location;lat;lon;timestamp;temperature;humidity
22895;DHT22;11614;52.494;6.976;2022-07-24T00:01:33;15.10;99.90
22895;DHT22;11614;52.494;6.976;2022-07-24T00:06:25;15.10;99.90
22895;DHT22;11614;52.494;6.976;2022-07-24T00:08:50;15.10;99.90
22895;DHT22;11614;52.494;6.976;2022-07-24T00:11:16;15.00;99.90
22895;DHT22;11614;52.494;6.976;2022-07-24T00:13:42;15.20;99.90
22895;DHT22;11614;52.494;6.976;2022-07-24T00:18:34;15.00;99.90
22895;DHT22;11614;52.494;6.976;2022-07-24T00:21:00;14.90;99.90
22895;DHT22;11614;52.494;6.976;2022-07-24T00:25:53;14.90;99.90
22895;DHT22;11614;52.494;6.976;2022-07-24T00:28:19;15.00;99.90
22895;DHT22;11614;52.494;6.976;2022-07-24T00:30:44;15.00;99.90
22895;DHT22;11614;52.494;6.976;2022-07-24T00:38:03;14.90;99.90
22895;DHT22;11614;52.494;6.976;2022-07-24T00:40:29;14.90;99.90
22895;DHT22;11614;52.494;6.976;2022-07-24T00:42:56;14.90;99.90
22895;DHT22;11614;52.494;6.976;2022-07-24T00:45:22;14.60;99.90
22895;DHT22;11614;52.494;6.976;2022-07-24T00:47:48;18.00;99.90
22895;DHT22;11614;52.494;6.976;2022-07-24T00:50:14;14.90;99.90
22895;DHT22;11614;52.494;6.976;2022-07-24T00:52:40;14.80;99.90
22895;DHT22;11614;52.494;6.976;2022-07-24T00:55:06;14.30;99.90
22895;DHT22;11614;52.494;6.976;2022-07-24T00:57:32;14.80;99.90
22895;DHT22;11614;52.494;6.976;2022-07-24T00:59:58;14.80;99.90
22895;DHT22;11614;52.494;6.976;2022-07-24T01:02:24;14.20;99.90
22895;DHT22;11614;52.494;6.976;2022-07-24T01:04:50;14.40;99.90
22895;DHT22;11614;52.494;6.976;2022-07-24T01:07:16;14.90;99.90
22895;DHT22;11614;52.494;6.976;2022-07-24T01:09:43;14.80;99.90
22895;DHT22;11614;52.494;6.976;2022-07-24T01:12:09;14.80;99.90
22895;DHT22;11614;52.494;6.976;2022-07-24T01:14:34;14.80;99.90
22895;DHT22;11614;52.494;6.976;2022-07-24T01:17:00;14.70;99.90
22895;DHT22;11614;52.494;6.976;2022-07-24T01:19:26;14.40;99.90
22895;DHT22;11614;52.494;6.976;2022-07-24T01:21:53;14.70;99.90
22895;DHT22;11614;52.494;6.976;2022-07-24T01:24:20;14.80;99.90
22895;DHT22;11614;52.494;6.976;2022-07-24T01:26:46;14.70;99.90
22895;DHT22;11614;52.494;6.976;2022-07-24T01:29:12;14.80;99.90
22895;DHT22;11614;52.494;6.976;2022-07-24T01:34:04;14.70;99.90
22895;DHT22;11614;52.494;6.976;2022-07-24T01:36:30;14.70;99.90
22895;DHT22;11614;52.494;6.976;2022-07-24T01:38:56;14.90;99.90
22895;DHT22;11614;52.494;6.976;2022-07-24T01:41:21;14.70;99.90
22895;DHT22;11614;52.494;6.976;2022-07-24T01:46:13;14.30;99.90
22895;DHT22;11614;52.494;6.976;2022-07-24T01:48:43;14.60;99.90
22895;DHT22;11614;52.494;6.976;2022-07-24T01:51:09;14.60;99.90
22895;DHT22;11614;52.494;6.976;2022-07-24T01:53:35;14.60;99.90
22895;DHT22;11614;52.494;6.976;2022-07-24T01:56:00;14.30;99.90
22895;DHT22;11614;52.494;6.976;2022-07-24T01:58:26;14.50;99.90
22895;DHT22;11614;52.494;6.976;2022-07-24T02:00:52;14.60;99.90
22895;DHT22;11614;52.494;6.976;2022-07-24T02:03:18;14.60;99.90
22895;DHT22;11614;52.494;6.976;2022-07-24T02:05:44;14.40;99.90
22895;DHT22;11614;52.494;6.976;2022-07-24T02:10:36;14.30;99.90
22895;DHT22;11614;52.494;6.976;2022-07-24T02:13:02;14.60;99.90
22895;DHT22;11614;52.494;6.976;2022-07-24T02:15:28;14.50;99.90
22895;DHT22;11614;52.494;6.976;2022-07-24T02:17:56;14.60;99.90
22895;DHT22;11614;52.494;6.976;2022-07-24T02:20:22;14.50;99.90
22895;DHT22;11614;52.494;6.976;2022-07-24T02:22:48;14.70;99.90
22895;DHT22;11614;52.494;6.976;2022-07-24T02:25:14;14.60;99.90
22895;DHT22;11614;52.494;6.976;2022-07-24T02:27:40;14.70;99.90
22895;DHT22;11614;52.494;6.976;2022-07-24T02:30:18;14.70;99.90
22895;DHT22;11614;52.494;6.976;2022-07-24T02:32:44;14.70;99.90
22895;DHT22;11614;52.494;6.976;2022-07-24T02:35:09;15.20;99.90
22895;DHT22;11614;52.494;6.976;2022-07-24T02:37:41;14.90;99.90
22895;DHT22;11614;52.494;6.976;2022-07-24T02:40:07;14.60;99.90
22895;DHT22;11614;52.494;6.976;2022-07-24T02:45:00;14.90;99.90
22895;DHT22;11614;52.494;6.976;2022-07-24T02:47:25;14.90;99.90
22895;DHT22;11614;52.494;6.976;2022-07-24T02:54:43;14.90;99.90
22895;DHT22;11614;52.494;6.976;2022-07-24T02:57:08;14.90;99.90
22895;DHT22;11614;52.494;6.976;2022-07-24T03:04:26;14.80;99.90
22895;DHT22;11614;52.494;6.976;2022-07-24T03:06:51;14.90;99.90
22895;DHT22;11614;52.494;6.976;2022-07-24T03:11:43;14.70;99.90
22895;DHT22;11614;52.494;6.976;2022-07-24T03:19:00;14.60;99.90
22895;DHT22;11614;52.494;6.976;2022-07-24T03:21:26;14.60;99.90
22895;DHT22;11614;52.494;6.976;2022-07-24T03:26:17;14.60;99.90
22895;DHT22;11614;52.494;6.976;2022-07-24T03:28:44;14.60;99.90
22895;DHT22;11614;52.494;6.976;2022-07-24T03:31:10;14.60;99.90
22895;DHT22;11614;52.494;6.976;2022-07-24T03:33:35;14.50;99.90
22895;DHT22;11614;52.494;6.976;2022-07-24T03:36:01;14.70;99.90
22895;DHT22;11614;52.494;6.976;2022-07-24T03:38:27;14.70;99.90
22895;DHT22;11614;52.494;6.976;2022-07-24T03:45:44;14.80;99.90
22895;DHT22;11614;52.494;6.976;2022-07-24T03:48:10;14.80;99.90
22895;DHT22;11614;52.494;6.976;2022-07-24T03:50:35;15.00;99.90
22895;DHT22;11614;52.494;6.976;2022-07-24T03:53:01;14.70;99.90
22895;DHT22;11614;52.494;6.976;2022-07-24T03:55:27;14.70;99.90
22895;DHT22;11614;52.494;6.976;2022-07-24T03:57:52;15.00;99.90
22895;DHT22;11614;52.494;6.976;2022-07-24T04:00:18;14.90;99.90
22895;DHT22;11614;52.494;6.976;2022-07-24T04:02:44;15.20;99.90
22895;DHT22;11614;52.494;6.976;2022-07-24T04:05:10;15.20;99.90
22895;DHT22;11614;52.494;6.976;2022-07-24T04:07:36;15.30;99.90
22895;DHT22;11614;52.494;6.976;2022-07-24T04:10:03;15.80;99.90
22895;DHT22;11614;52.494;6.976;2022-07-24T04:17:21;15.60;99.90
22895;DHT22;11614;52.494;6.976;2022-07-24T04:19:47;15.90;99.90
22895;DHT22;11614;52.494;6.976;2022-07-24T04:22:12;15.90;99.90
22895;DHT22;11614;52.494;6.976;2022-07-24T04:24:38;16.00;99.90
22895;DHT22;11614;52.494;6.976;2022-07-24T04:27:03;16.20;99.90
22895;DHT22;11614;52.494;6.976;2022-07-24T04:29:29;16.20;99.90
22895;DHT22;11614;52.494;6.976;2022-07-24T04:31:55;16.40;99.90
22895;DHT22;11614;52.494;6.976;2022-07-24T04:36:46;16.70;99.90
22895;DHT22;11614;52.494;6.976;2022-07-24T04:39:12;16.70;99.90
22895;DHT22;11614;52.494;6.976;2022-07-24T04:44:04;17.00;99.90
22895;DHT22;11614;52.494;6.976;2022-07-24T04:46:29;17.20;99.90
22895;DHT22;11614;52.494;6.976;2022-07-24T04:48:55;17.50;99.90
22895;DHT22;11614;52.494;6.976;2022-07-24T04:53:46;17.10;99.90
22895;DHT22;11614;52.494;6.976;2022-07-24T04:56:12;17.60;99.90
22895;DHT22;11614;52.494;6.976;2022-07-24T05:01:04;18.20;99.90
22895;DHT22;11614;52.494;6.976;2022-07-24T05:03:30;18.20;99.90
22895;DHT22;11614;52.494;6.976;2022-07-24T05:05:56;19.00;99.90
22895;DHT22;11614;52.494;6.976;2022-07-24T05:08:22;18.90;99.90
22895;DHT22;11614;52.494;6.976;2022-07-24T05:10:47;19.00;99.90
22895;DHT22;11614;52.494;6.976;2022-07-24T05:15:39;18.80;99.90
22895;DHT22;11614;52.494;6.976;2022-07-24T05:18:05;19.10;99.90
22895;DHT22;11614;52.494;6.976;2022-07-24T05:20:30;19.10;99.90
22895;DHT22;11614;52.494;6.976;2022-07-24T05:25:22;20.20;99.90
22895;DHT22;11614;52.494;6.976;2022-07-24T22:53:10;21.80;99.90
22895;DHT22;11614;52.494;6.976;2022-07-24T22:58:02;21.70;99.90
22895;DHT22;11614;52.494;6.976;2022-07-24T23:02:55;21.60;99.90
22895;DHT22;11614;52.494;6.976;2022-07-24T23:05:21;21.40;99.90
22895;DHT22;11614;52.494;6.976;2022-07-24T23:07:46;21.50;99.90
22895;DHT22;11614;52.494;6.976;2022-07-24T23:10:12;21.70;99.90
22895;DHT22;11614;52.494;6.976;2022-07-24T23:12:38;21.30;99.90
22895;DHT22;11614;52.494;6.976;2022-07-24T23:15:05;21.20;99.90
22895;DHT22;11614;52.494;6.976;2022-07-24T23:17:31;21.30;99.90
22895;DHT22;11614;52.494;6.976;2022-07-24T23:19:56;21.30;99.90
22895;DHT22;11614;52.494;6.976;2022-07-24T23:22:22;21.10;99.90
22895;DHT22;11614;52.494;6.976;2022-07-24T23:24:47;21.20;99.90
22895;DHT22;11614;52.494;6.976;2022-07-24T23:27:13;21.00;99.90
22895;DHT22;11614;52.494;6.976;2022-07-24T23:29:38;20.70;99.90
22895;DHT22;11614;52.494;6.976;2022-07-24T23:32:04;20.80;99.90
22895;DHT22;11614;52.494;6.976;2022-07-24T23:34:30;20.70;99.90
22895;DHT22;11614;52.494;6.976;2022-07-24T23:36:55;20.70;99.90
22895;DHT22;11614;52.494;6.976;2022-07-24T23:39:21;20.60;99.90
22895;DHT22;11614;52.494;6.976;2022-07-24T23:41:47;20.70;99.90
22895;DHT22;11614;52.494;6.976;2022-07-24T23:44:12;20.90;99.90
22895;DHT22;11614;52.494;6.976;2022-07-24T23:46:38;22.40;99.90
22895;DHT22;11614;52.494;6.976;2022-07-24T23:51:29;20.40;99.90
22895;DHT22;11614;52.494;6.976;2022-07-24T23:53:55;20.70;99.90
22895;DHT22;11614;52.494;6.976;2022-07-24T23:56:20;20.40;99.90
